createdAt,value
2023-01-20T00:01:32.266Z,35.35
2023-01-20T00:04:00.045Z,38.57
2023-01-20T00:06:28.837Z,30.87
2023-01-20T00:08:58.547Z,33.70
2023-01-20T00:11:26.381Z,27.10
2023-01-20T00:14:00.416Z,32.33
2023-01-20T00:16:29.037Z,25.73
2023-01-20T00:18:56.637Z,24.70
2023-01-20T00:21:24.674Z,23.63
2023-01-20T00:23:52.288Z,19.55
2023-01-20T00:26:22.140Z,23.00
2023-01-20T00:28:50.992Z,20.20
2023-01-20T00:31:21.342Z,21.40
2023-01-20T00:33:50.736Z,18.65
2023-01-20T00:36:20.552Z,19.80
2023-01-20T00:38:48.367Z,21.52
2023-01-20T00:41:16.635Z,18.75
2023-01-20T00:43:44.752Z,18.53
2023-01-20T00:46:12.843Z,18.42
2023-01-20T00:48:42.512Z,17.25
2023-01-20T00:51:11.172Z,19.17
2023-01-20T00:53:38.926Z,17.17
2023-01-20T00:56:07.445Z,15.75
2023-01-20T00:58:35.436Z,20.15
2023-01-20T01:01:03.629Z,18.98
2023-01-20T01:03:31.405Z,17.48
2023-01-20T01:06:09.690Z,20.42
2023-01-20T01:08:37.427Z,19.05
2023-01-20T01:11:05.984Z,17.58
2023-01-20T01:13:34.238Z,18.17
2023-01-20T01:16:02.232Z,18.23
2023-01-20T01:18:29.894Z,17.60
2023-01-20T01:20:57.984Z,16.70
2023-01-20T01:23:26.956Z,16.80
2023-01-20T01:25:54.640Z,18.00
2023-01-20T01:28:22.205Z,19.73
2023-01-20T01:30:49.852Z,17.23
2023-01-20T01:33:17.478Z,14.60
2023-01-20T01:35:45.105Z,16.75
2023-01-20T01:38:12.627Z,17.50
2023-01-20T01:40:41.494Z,16.20
2023-01-20T01:43:22.977Z,17.20
2023-01-20T01:45:50.732Z,17.38
2023-01-20T01:48:22.260Z,18.75
2023-01-20T01:50:54.130Z,17.95
2023-01-20T01:53:22.220Z,18.42
2023-01-20T01:55:54.795Z,19.25
2023-01-20T01:58:28.962Z,18.92
2023-01-20T02:00:56.746Z,19.17
2023-01-20T02:03:25.114Z,21.05
2023-01-20T02:05:55.947Z,22.55
2023-01-20T02:08:23.896Z,22.88
2023-01-20T02:10:52.877Z,20.58
2023-01-20T02:13:20.611Z,23.98
2023-01-20T02:15:56.330Z,23.25
2023-01-20T02:18:38.744Z,22.42
2023-01-20T02:21:47.767Z,22.00
2023-01-20T02:24:47.112Z,22.88
2023-01-20T02:27:23.863Z,21.77
2023-01-20T02:30:23.081Z,22.05
2023-01-20T02:32:58.437Z,21.70
2023-01-20T02:35:31.815Z,20.88
2023-01-20T02:38:12.058Z,21.30
2023-01-20T02:40:47.500Z,20.85
2023-01-20T02:43:22.491Z,21.27
2023-01-20T02:45:54.684Z,21.13
2023-01-20T02:48:27.596Z,19.05
2023-01-20T02:51:03.033Z,19.98
2023-01-20T02:53:37.466Z,19.65
2023-01-20T02:56:05.874Z,20.27
2023-01-20T02:58:40.641Z,19.97
2023-01-20T03:01:13.840Z,18.57
2023-01-20T03:03:46.789Z,21.08
2023-01-20T03:06:18.961Z,21.08
2023-01-20T03:08:49.421Z,21.80
2023-01-20T03:11:17.471Z,21.02
2023-01-20T03:13:49.311Z,22.13
2023-01-20T03:16:19.780Z,19.10
2023-01-20T03:18:49.384Z,21.92
2023-01-20T03:21:17.168Z,20.38
2023-01-20T03:23:47.686Z,20.65
2023-01-20T03:26:17.307Z,19.37
2023-01-20T03:28:46.786Z,19.77
2023-01-20T03:31:18.868Z,20.42
2023-01-20T03:33:50.419Z,19.77
2023-01-20T03:36:21.277Z,21.55
2023-01-20T03:38:49.873Z,20.20
2023-01-20T03:41:27.203Z,20.90
2023-01-20T03:43:59.958Z,21.08
2023-01-20T03:46:33.333Z,22.73
2023-01-20T03:49:09.823Z,20.88
2023-01-20T03:51:47.615Z,21.70
2023-01-20T03:54:23.466Z,19.90
2023-01-20T03:56:57.466Z,21.27
2023-01-20T03:59:26.314Z,19.60
2023-01-20T04:01:54.539Z,17.67
2023-01-20T04:04:23.510Z,23.45
2023-01-20T04:06:52.210Z,19.77
2023-01-20T04:09:24.828Z,21.15
2023-01-20T04:11:52.681Z,22.08
2023-01-20T04:14:20.392Z,22.52
2023-01-20T04:16:53.258Z,19.17
2023-01-20T04:19:20.902Z,19.20
2023-01-20T04:22:08.807Z,20.02
2023-01-20T04:24:41.625Z,20.45
2023-01-20T04:27:09.410Z,21.23
2023-01-20T04:29:37.273Z,20.58
2023-01-20T04:32:05.279Z,20.35
2023-01-20T04:34:32.953Z,22.63
2023-01-20T04:37:00.831Z,20.48
2023-01-20T04:39:29.758Z,23.17
2023-01-20T04:41:57.396Z,21.23
2023-01-20T04:44:25.289Z,21.20
2023-01-20T04:46:57.416Z,22.40
2023-01-20T04:49:25.199Z,22.10
2023-01-20T04:51:52.845Z,22.43
2023-01-20T04:54:20.590Z,22.83
2023-01-20T04:56:50.669Z,22.85
2023-01-20T04:59:18.178Z,23.37
2023-01-20T05:01:45.963Z,25.90
2023-01-20T05:04:13.652Z,22.08
2023-01-20T05:06:42.801Z,22.75
2023-01-20T05:09:14.250Z,20.65
2023-01-20T05:11:42.075Z,24.25
2023-01-20T05:14:11.890Z,21.98
2023-01-20T05:16:39.566Z,23.27
2023-01-20T05:19:07.122Z,24.33
2023-01-20T05:21:34.859Z,22.47
2023-01-20T05:24:02.542Z,23.75
2023-01-20T05:26:30.178Z,23.25
2023-01-20T05:28:57.743Z,22.63
2023-01-20T05:31:26.843Z,23.40
2023-01-20T05:33:54.446Z,19.23
2023-01-20T05:36:22.252Z,22.10
2023-01-20T05:38:49.856Z,21.27
2023-01-20T05:41:17.470Z,21.55
2023-01-20T05:43:45.022Z,19.17
2023-01-20T05:46:12.653Z,19.83
2023-01-20T05:48:41.617Z,22.02
2023-01-20T05:51:09.232Z,21.70
2023-01-20T05:53:37.025Z,21.60
2023-01-20T05:56:06.537Z,20.88
2023-01-20T05:58:35.608Z,20.88
2023-01-20T06:01:06.899Z,19.63
2023-01-20T06:03:35.019Z,19.42
2023-01-20T06:06:06.646Z,23.45
2023-01-20T06:08:34.388Z,18.60
2023-01-20T06:11:02.210Z,19.80
2023-01-20T06:13:29.848Z,18.73
2023-01-20T06:15:57.952Z,20.80
2023-01-20T06:18:25.722Z,21.73
2023-01-20T06:20:53.367Z,21.40
2023-01-20T06:23:22.362Z,24.48
2023-01-20T06:25:49.977Z,21.73
2023-01-20T06:28:17.617Z,21.67
2023-01-20T06:30:45.254Z,23.33
2023-01-20T06:33:12.839Z,22.15
2023-01-20T06:35:40.537Z,22.63
2023-01-20T06:38:08.185Z,21.80
2023-01-20T06:40:37.102Z,21.63
2023-01-20T06:43:04.624Z,21.52
2023-01-20T06:45:32.172Z,22.52
2023-01-20T06:47:59.778Z,28.50
2023-01-20T06:50:27.340Z,27.65
2023-01-20T06:52:55.859Z,25.03
2023-01-20T06:55:23.453Z,22.92
2023-01-20T06:57:52.370Z,22.60
2023-01-20T07:00:20.990Z,25.13
2023-01-20T07:02:49.541Z,22.35
2023-01-20T07:05:17.518Z,24.85
2023-01-20T07:07:45.691Z,21.77
2023-01-20T07:10:13.798Z,21.92
2023-01-20T07:12:41.416Z,22.33
2023-01-20T07:15:11.405Z,21.70
2023-01-20T07:17:39.008Z,20.73
2023-01-20T07:20:07.385Z,20.10
2023-01-20T07:22:35.173Z,18.92
2023-01-20T07:25:02.833Z,22.02
2023-01-20T07:27:30.514Z,22.13
2023-01-20T07:29:58.825Z,22.70
2023-01-20T07:32:30.625Z,27.17
2023-01-20T07:35:23.021Z,25.15
2023-01-20T07:37:50.633Z,23.08
2023-01-20T07:40:18.731Z,22.08
2023-01-20T07:42:46.321Z,21.67
2023-01-20T07:45:14.147Z,20.48
2023-01-20T07:47:43.512Z,19.07
2023-01-20T07:50:11.891Z,18.17
2023-01-20T07:52:39.723Z,19.83
2023-01-20T07:55:07.843Z,18.88
2023-01-20T07:57:35.423Z,19.25
2023-01-20T08:00:03.350Z,22.73
2023-01-20T08:02:30.875Z,17.90
2023-01-20T08:04:59.815Z,19.27
2023-01-20T08:07:27.458Z,17.85
2023-01-20T08:09:55.324Z,19.52
2023-01-20T08:12:23.654Z,17.95
2023-01-20T08:14:51.220Z,19.75
2023-01-20T08:17:18.853Z,19.37
2023-01-20T08:19:46.481Z,17.20
2023-01-20T08:22:15.580Z,15.57
2023-01-20T08:24:43.219Z,16.38
2023-01-20T08:27:11.190Z,16.10
2023-01-20T08:29:38.737Z,13.98
2023-01-20T08:32:06.329Z,15.75
2023-01-20T08:34:35.143Z,12.93
2023-01-20T08:37:02.694Z,14.20
2023-01-20T08:39:31.826Z,12.70
2023-01-20T08:41:59.364Z,14.27
2023-01-20T08:44:27.499Z,11.25
2023-01-20T08:46:59.205Z,13.68
2023-01-20T08:49:26.984Z,13.33
2023-01-20T08:51:55.316Z,12.37
2023-01-20T08:54:23.456Z,13.75
2023-01-20T08:56:53.345Z,14.25
2023-01-20T08:59:21.347Z,12.38
2023-01-20T09:01:48.882Z,13.98
2023-01-20T09:04:16.535Z,13.23
2023-01-20T09:06:46.351Z,13.18
2023-01-20T09:09:16.515Z,11.43
2023-01-20T09:11:50.715Z,13.77
2023-01-20T09:14:20.582Z,12.90
2023-01-20T09:16:48.451Z,13.07
2023-01-20T09:19:16.724Z,12.23
2023-01-20T09:21:44.510Z,12.73
2023-01-20T09:24:12.196Z,12.40
2023-01-20T09:26:41.555Z,12.15
2023-01-20T09:29:12.659Z,12.48
2023-01-20T09:31:45.092Z,11.65
2023-01-20T09:34:15.340Z,12.43
2023-01-20T09:36:43.107Z,12.27
2023-01-20T09:39:31.660Z,13.73
2023-01-20T09:42:25.213Z,10.80
2023-01-20T09:44:56.901Z,12.67
2023-01-20T09:47:31.376Z,13.15
2023-01-20T09:50:41.181Z,11.43
2023-01-20T09:53:15.553Z,13.98
2023-01-20T09:55:52.133Z,10.87
2023-01-20T09:58:28.372Z,10.95
2023-01-20T10:01:05.901Z,11.67
2023-01-20T10:03:40.891Z,9.15
2023-01-20T10:06:13.804Z,9.77
2023-01-20T10:09:03.918Z,9.50
2023-01-20T10:11:37.309Z,9.52
2023-01-20T10:14:11.358Z,9.60
2023-01-20T10:16:45.229Z,9.65
2023-01-20T10:19:27.110Z,10.63
2023-01-20T10:22:05.184Z,9.20
2023-01-20T10:24:36.652Z,8.93
2023-01-20T10:27:05.606Z,12.88
2023-01-20T10:29:37.243Z,9.88
2023-01-20T10:32:09.174Z,9.65
2023-01-20T10:34:45.920Z,9.48
2023-01-20T10:37:15.303Z,10.65
2023-01-20T10:39:49.241Z,11.27
2023-01-20T10:42:18.508Z,10.65
2023-01-20T10:44:48.214Z,10.75
2023-01-20T10:47:42.255Z,9.57
2023-01-20T10:50:27.990Z,11.43
2023-01-20T10:53:13.550Z,23.27
2023-01-20T10:55:56.530Z,25.90
2023-01-20T10:58:28.018Z,17.75
2023-01-20T11:00:58.051Z,21.73
2023-01-20T11:03:26.811Z,10.23
2023-01-20T11:05:55.772Z,8.85
2023-01-20T11:08:24.599Z,8.65
2023-01-20T11:10:55.609Z,11.35
2023-01-20T11:13:23.673Z,10.00
2023-01-20T11:15:54.764Z,8.60
2023-01-20T11:18:28.931Z,10.10
2023-01-20T11:21:01.339Z,9.02
2023-01-20T11:23:37.716Z,9.35
2023-01-20T11:26:10.754Z,9.63
2023-01-20T11:28:48.128Z,8.82
2023-01-20T11:31:16.320Z,9.73
2023-01-20T11:33:56.511Z,8.18
2023-01-20T11:36:26.780Z,8.75
2023-01-20T11:38:56.022Z,10.48
2023-01-20T11:41:25.279Z,8.98
2023-01-20T11:43:55.319Z,8.52
2023-01-20T11:46:26.455Z,9.77
2023-01-20T11:49:13.658Z,7.05
2023-01-20T11:51:53.699Z,9.40
2023-01-20T11:54:23.166Z,10.65
2023-01-20T11:56:54.817Z,9.10
2023-01-20T11:59:27.990Z,10.70
2023-01-20T12:01:58.392Z,8.23
2023-01-20T12:04:48.295Z,6.90
2023-01-20T12:07:24.444Z,7.63
2023-01-20T12:09:56.628Z,9.73
2023-01-20T12:12:32.953Z,7.00
2023-01-20T12:15:05.890Z,9.00
2023-01-20T12:17:51.290Z,10.52
2023-01-20T12:20:25.295Z,9.90
2023-01-20T12:23:06.006Z,9.30
2023-01-20T12:25:38.192Z,9.40
2023-01-20T12:28:15.063Z,10.10
2023-01-20T12:30:52.430Z,11.33
2023-01-20T12:33:27.979Z,9.95
2023-01-20T12:36:30.942Z,8.70
2023-01-20T12:39:12.473Z,8.83
2023-01-20T12:41:57.481Z,12.30
2023-01-20T12:44:34.264Z,8.70
2023-01-20T12:47:17.371Z,9.10
2023-01-20T12:50:00.766Z,9.67
2023-01-20T12:52:44.691Z,9.90
2023-01-20T12:55:29.805Z,13.90
2023-01-20T12:58:12.722Z,19.83
2023-01-20T13:00:54.934Z,12.68
2023-01-20T13:04:16.013Z,9.70
2023-01-20T13:06:55.367Z,18.63
2023-01-20T13:09:37.924Z,18.02
2023-01-20T13:12:21.076Z,12.18
2023-01-20T13:14:56.525Z,12.68
2023-01-20T13:17:31.371Z,10.63
2023-01-20T13:20:02.376Z,7.22
2023-01-20T13:22:31.044Z,8.57
2023-01-20T13:25:04.646Z,9.18
2023-01-20T13:27:37.314Z,11.00
2023-01-20T13:30:07.052Z,7.97
2023-01-20T13:32:36.696Z,7.20
2023-01-20T13:35:42.403Z,6.13
2023-01-20T13:38:20.415Z,8.02
2023-01-20T13:40:53.103Z,7.20
2023-01-20T13:43:50.500Z,7.35
2023-01-20T13:46:50.172Z,6.07
2023-01-20T13:49:26.404Z,7.38
2023-01-20T13:51:54.025Z,7.10
2023-01-20T13:54:38.351Z,6.63
2023-01-20T13:57:45.415Z,7.03
2023-01-20T14:00:17.698Z,6.43
2023-01-20T14:02:45.916Z,6.87
2023-01-20T14:05:33.659Z,5.50
2023-01-20T14:08:01.412Z,6.07
2023-01-20T14:10:29.397Z,6.80
2023-01-20T14:12:56.980Z,4.93
2023-01-20T14:15:33.082Z,6.65
2023-01-20T14:18:01.367Z,8.15
2023-01-20T14:20:30.551Z,6.00
2023-01-20T14:23:18.049Z,8.15
2023-01-20T14:25:58.512Z,7.93
2023-01-20T14:28:26.096Z,7.55
2023-01-20T14:31:13.256Z,9.82
2023-01-20T14:33:49.452Z,8.13
2023-01-20T14:36:19.191Z,6.47
2023-01-20T14:38:57.632Z,10.07
2023-01-20T14:41:30.944Z,7.97
2023-01-20T14:43:59.132Z,9.40
2023-01-20T14:46:31.100Z,11.10
2023-01-20T14:48:59.865Z,8.35
2023-01-20T14:51:27.818Z,9.30
2023-01-20T14:54:33.352Z,8.43
2023-01-20T14:57:12.496Z,8.02
2023-01-20T14:59:40.461Z,7.60
2023-01-20T15:02:19.594Z,9.07
2023-01-20T15:04:47.179Z,10.18
2023-01-20T15:07:20.267Z,6.93
2023-01-20T15:09:54.832Z,8.38
2023-01-20T15:12:34.151Z,7.60
2023-01-20T15:15:13.098Z,8.38
2023-01-20T15:18:04.076Z,7.88
2023-01-20T15:20:32.881Z,9.82
2023-01-20T15:23:00.920Z,11.30
2023-01-20T15:25:29.446Z,19.15
2023-01-20T15:27:58.132Z,14.18
2023-01-20T15:30:27.749Z,12.57
2023-01-20T15:32:57.796Z,16.20
2023-01-20T15:35:26.809Z,12.70
2023-01-20T15:37:55.185Z,13.30
2023-01-20T15:40:25.156Z,19.23
2023-01-20T15:42:53.841Z,17.52
2023-01-20T15:45:21.466Z,12.98
2023-01-20T15:47:49.702Z,16.48
2023-01-20T15:50:21.479Z,17.15
2023-01-20T15:52:49.511Z,16.92
2023-01-20T15:55:19.037Z,14.32
2023-01-20T15:57:50.462Z,13.10
2023-01-20T16:00:19.872Z,6.82
2023-01-20T16:02:47.595Z,8.45
2023-01-20T16:05:17.579Z,12.32
2023-01-20T16:07:49.388Z,9.38
2023-01-20T16:10:18.620Z,12.23
2023-01-20T16:12:47.520Z,9.88
2023-01-20T16:15:16.608Z,7.30
2023-01-20T16:17:44.493Z,31.53
2023-01-20T16:20:21.166Z,36.60
2023-01-20T16:22:50.114Z,10.40
2023-01-20T16:25:17.735Z,12.13
2023-01-20T16:27:45.292Z,66.15
2023-01-20T16:30:16.923Z,84.33
2023-01-20T16:32:46.268Z,35.55
2023-01-20T16:35:15.094Z,114.18
2023-01-20T16:37:43.108Z,41.67
2023-01-20T16:40:15.051Z,28.08
2023-01-20T16:42:43.291Z,17.75
2023-01-20T16:45:21.951Z,16.67
2023-01-20T16:47:49.837Z,12.80
2023-01-20T16:50:18.603Z,11.32
2023-01-20T16:52:46.864Z,7.65
2023-01-20T16:55:16.121Z,10.52
2023-01-20T16:57:44.210Z,7.82
2023-01-20T17:00:13.070Z,7.00
2023-01-20T17:02:40.652Z,7.43
2023-01-20T17:05:09.215Z,8.33
2023-01-20T17:07:36.996Z,8.85
2023-01-20T17:10:04.810Z,8.48
2023-01-20T17:12:33.814Z,10.77
2023-01-20T17:15:01.349Z,10.82
2023-01-20T17:17:28.961Z,11.57
2023-01-20T17:19:56.544Z,12.30
2023-01-20T17:22:24.156Z,16.42
2023-01-20T17:24:51.791Z,12.82
2023-01-20T17:27:19.350Z,11.73
2023-01-20T17:29:48.295Z,15.40
2023-01-20T17:32:16.068Z,14.98
2023-01-20T17:34:43.702Z,16.13
2023-01-20T17:37:11.262Z,17.75
2023-01-20T17:39:38.844Z,16.77
2023-01-20T17:42:06.575Z,13.90
2023-01-20T17:44:35.067Z,13.45
2023-01-20T17:47:04.203Z,15.50
2023-01-20T17:49:31.974Z,14.30
2023-01-20T17:51:59.527Z,14.32
2023-01-20T17:54:27.102Z,15.40
2023-01-20T17:56:54.671Z,14.93
2023-01-20T17:59:22.302Z,15.45
2023-01-20T18:01:52.222Z,14.35
2023-01-20T18:04:21.290Z,17.65
2023-01-20T18:06:48.919Z,15.68
2023-01-20T18:09:16.705Z,13.82
2023-01-20T18:11:44.552Z,12.80
2023-01-20T18:14:12.125Z,14.13
2023-01-20T18:16:41.858Z,13.70
2023-01-20T18:19:12.237Z,13.83
2023-01-20T18:21:43.223Z,14.23
2023-01-20T18:24:12.640Z,15.27
2023-01-20T18:26:42.542Z,13.93
2023-01-20T18:29:14.691Z,13.20
2023-01-20T18:31:42.445Z,15.50
2023-01-20T18:34:15.621Z,15.15
2023-01-20T18:36:46.151Z,13.65
2023-01-20T18:39:15.814Z,12.27
2023-01-20T18:41:43.686Z,12.50
2023-01-20T18:44:11.824Z,13.85
2023-01-20T18:46:39.601Z,15.85
2023-01-20T18:49:09.673Z,15.05
2023-01-20T18:51:38.184Z,16.08
2023-01-20T18:54:10.401Z,16.08
2023-01-20T18:56:38.247Z,15.23
2023-01-20T18:59:07.718Z,15.57
2023-01-20T19:01:37.161Z,14.75
2023-01-20T19:04:06.336Z,16.05
2023-01-20T19:06:36.939Z,15.80
2023-01-20T19:09:05.697Z,15.43
2023-01-20T19:11:38.291Z,16.23
2023-01-20T19:14:06.650Z,17.15
2023-01-20T19:16:37.790Z,16.87
2023-01-20T19:19:07.240Z,16.92
2023-01-20T19:21:36.547Z,16.35
2023-01-20T19:24:07.881Z,18.90
2023-01-20T19:26:39.061Z,18.50
2023-01-20T19:29:08.442Z,17.77
2023-01-20T19:31:38.135Z,17.67
2023-01-20T19:34:06.525Z,16.88
2023-01-20T19:36:34.535Z,16.47
2023-01-20T19:39:02.346Z,17.80
2023-01-20T19:41:33.215Z,17.15
2023-01-20T19:44:03.700Z,15.48
2023-01-20T19:46:33.917Z,17.42
2023-01-20T19:49:02.621Z,17.85
2023-01-20T19:51:31.857Z,16.27
2023-01-20T19:54:02.038Z,16.27
2023-01-20T19:56:31.327Z,18.73
2023-01-20T19:59:00.662Z,18.50
2023-01-20T20:01:31.939Z,17.63
2023-01-20T20:04:00.865Z,17.77
2023-01-20T20:06:30.809Z,17.90
2023-01-20T20:09:00.431Z,19.13
2023-01-20T20:11:28.665Z,21.23
2023-01-20T20:13:57.091Z,21.85
2023-01-20T20:16:26.306Z,17.73
2023-01-20T20:18:56.290Z,16.73
2023-01-20T20:21:24.872Z,14.55
2023-01-20T20:23:53.655Z,16.30
2023-01-20T20:26:21.979Z,14.65
2023-01-20T20:28:50.962Z,14.73
2023-01-20T20:31:19.791Z,17.13
2023-01-20T20:33:47.615Z,16.67
2023-01-20T20:36:16.793Z,15.82
2023-01-20T20:38:51.241Z,18.67
2023-01-20T20:41:19.146Z,15.70
2023-01-20T20:43:47.089Z,18.02
2023-01-20T20:46:15.974Z,18.30
2023-01-20T20:48:43.827Z,19.00
2023-01-20T20:51:13.941Z,19.00
2023-01-20T20:53:43.943Z,18.35
2023-01-20T20:56:13.496Z,18.60
2023-01-20T20:58:59.512Z,21.38
2023-01-20T21:01:28.851Z,19.00
2023-01-20T21:03:57.773Z,19.02
2023-01-20T21:06:25.939Z,20.05
2023-01-20T21:08:55.061Z,18.98
2023-01-20T21:11:24.096Z,20.55
2023-01-20T21:13:52.720Z,21.60
2023-01-20T21:16:23.417Z,21.80
2023-01-20T21:18:53.063Z,18.63
2023-01-20T21:21:21.610Z,18.58
2023-01-20T21:23:50.758Z,19.48
2023-01-20T21:26:20.297Z,20.92
2023-01-20T21:28:49.174Z,20.83
2023-01-20T21:31:19.180Z,21.10
2023-01-20T21:33:47.103Z,19.95
2023-01-20T21:36:14.929Z,20.90
2023-01-20T21:38:46.399Z,19.17
2023-01-20T21:41:16.307Z,19.55
2023-01-20T21:44:04.646Z,18.52
2023-01-20T21:46:35.915Z,18.48
2023-01-20T21:49:23.490Z,17.95
2023-01-20T21:52:08.674Z,16.80
2023-01-20T21:54:36.388Z,18.35
2023-01-20T21:57:04.836Z,18.27
2023-01-20T21:59:33.827Z,15.75
2023-01-20T22:02:01.743Z,16.98
2023-01-20T22:04:29.491Z,15.50
2023-01-20T22:06:57.104Z,16.83
2023-01-20T22:09:24.916Z,16.23
2023-01-20T22:11:52.734Z,14.57
2023-01-20T22:14:20.465Z,14.33
2023-01-20T22:16:49.698Z,13.75
2023-01-20T22:19:17.622Z,13.00
2023-01-20T22:21:45.331Z,14.52
2023-01-20T22:24:13.095Z,13.30
2023-01-20T22:26:41.518Z,13.63
2023-01-20T22:29:09.470Z,14.25
2023-01-20T22:31:37.221Z,15.00
2023-01-20T22:34:09.016Z,14.70
2023-01-20T22:37:28.187Z,15.45
2023-01-20T22:39:55.727Z,15.48
2023-01-20T22:42:23.293Z,16.25
2023-01-20T22:44:50.846Z,16.10
2023-01-20T22:47:18.401Z,14.68
2023-01-20T22:49:47.261Z,16.92
2023-01-20T22:52:14.873Z,15.55
2023-01-20T22:54:42.378Z,17.02
2023-01-20T22:57:10.067Z,17.17
2023-01-20T22:59:37.709Z,15.90
2023-01-20T23:02:05.327Z,16.50
2023-01-20T23:04:32.940Z,17.73
2023-01-20T23:07:01.976Z,19.27
2023-01-20T23:09:29.674Z,19.52
2023-01-20T23:11:57.238Z,16.98
2023-01-20T23:14:57.563Z,17.45
2023-01-20T23:17:25.296Z,20.95
2023-01-20T23:19:52.884Z,19.40
2023-01-20T23:22:22.330Z,19.13
2023-01-20T23:24:49.932Z,18.50
2023-01-20T23:27:17.878Z,19.20
2023-01-20T23:29:45.522Z,18.70
2023-01-20T23:32:13.116Z,20.13
2023-01-20T23:34:40.726Z,19.05
2023-01-20T23:37:08.255Z,20.75
2023-01-20T23:39:37.198Z,19.73
2023-01-20T23:42:04.895Z,21.15
2023-01-20T23:44:32.430Z,21.17
2023-01-20T23:46:59.989Z,19.50
2023-01-20T23:49:27.580Z,18.92
2023-01-20T23:51:55.188Z,18.02
2023-01-20T23:54:23.055Z,18.00
2023-01-20T23:56:51.990Z,18.55
2023-01-20T23:59:19.961Z,18.30
